Time;durP1;ratioP1;P1;durP2;ratioP2;P2;SDS_P1;SDS_P2;PMS_P1;PMS_P2;Temp;Humidity;BMP_temperature;BMP_pressure;BME280_temperature;BME280_humidity;BME280_pressure;Samples;Min_cycle;Max_cycle;Signal;HPM_P1;HPM_P2
2022/01/06 00:01:56;;;;;;;5.97;2.17;;;5.80;99.90;;;;;;5129354;27;20106;-65
2022/01/06 00:04:21;;;;;;;8.35;2.35;;;5.70;99.90;;;;;;5124876;27;20093;-64
2022/01/06 00:06:47;;;;;;;5.72;2.30;;;5.70;99.90;;;;;;5134943;27;20291;-66
2022/01/06 00:09:17;;;;;;;5.60;2.45;;;5.70;99.90;;;;;;5137999;27;20110;-65
2022/01/06 00:11:44;;;;;;;5.85;2.67;;;5.60;99.90;;;;;;5136199;27;20046;-63
2022/01/06 00:14:21;;;;;;;6.60;2.38;;;5.60;99.90;;;;;;5135983;27;20039;-64
2022/01/06 00:24:49;;;;;;;6.35;2.65;;;5.60;99.90;;;;;;5134859;27;20097;-65
2022/01/06 00:27:15;;;;;;;4.97;2.08;;;5.60;99.90;;;;;;5135797;27;20472;-65
2022/01/06 00:29:42;;;;;;;7.78;2.30;;;5.60;99.90;;;;;;5135172;27;20033;-64
2022/01/06 00:32:08;;;;;;;4.68;2.30;;;5.60;99.90;;;;;;5134161;27;20509;-66
2022/01/06 00:34:34;;;;;;;4.00;2.50;;;5.70;99.90;;;;;;5133703;27;20029;-64
2022/01/06 00:37:01;;;;;;;6.20;2.25;;;5.70;99.90;;;;;;5135039;27;20098;-63
2022/01/06 00:39:28;;;;;;;5.97;2.13;;;5.70;99.90;;;;;;5135257;27;20129;-68
2022/01/06 00:41:59;;;;;;;9.68;2.92;;;5.70;99.90;;;;;;5134959;27;20023;-63
2022/01/06 00:44:25;;;;;;;6.57;2.92;;;5.70;99.90;;;;;;5133863;27;20133;-64
2022/01/06 00:46:51;;;;;;;6.72;2.30;;;5.60;99.90;;;;;;5134443;27;20035;-64
2022/01/06 00:49:18;;;;;;;6.65;2.53;;;5.60;99.90;;;;;;5137246;27;20041;-68
2022/01/06 00:51:44;;;;;;;8.23;2.42;;;5.60;99.90;;;;;;5135842;27;20544;-64
2022/01/06 00:54:10;;;;;;;6.22;2.50;;;5.70;99.90;;;;;;5135261;27;20066;-64
2022/01/06 00:56:36;;;;;;;6.95;2.55;;;5.60;99.90;;;;;;5134734;27;20019;-63
2022/01/06 00:59:02;;;;;;;3.90;2.33;;;5.70;99.90;;;;;;5135034;27;20520;-64
2022/01/06 01:01:28;;;;;;;7.70;2.55;;;5.70;99.90;;;;;;5135002;27;20095;-64
2022/01/06 01:03:53;;;;;;;4.55;2.10;;;5.70;99.90;;;;;;5133978;27;20035;-64
2022/01/06 01:06:20;;;;;;;7.00;2.20;;;5.70;99.90;;;;;;5134088;27;20023;-62
2022/01/06 01:08:45;;;;;;;5.70;2.53;;;5.70;99.90;;;;;;5133818;27;20102;-63
2022/01/06 01:11:11;;;;;;;7.55;1.90;;;5.70;99.90;;;;;;5135026;27;20103;-64
2022/01/06 01:13:53;;;;;;;3.22;2.00;;;5.80;99.90;;;;;;5134332;27;20027;-64
2022/01/06 01:16:23;;;;;;;4.10;1.83;;;5.80;99.90;;;;;;5134685;27;20138;-63
2022/01/06 01:18:49;;;;;;;5.55;2.50;;;5.80;99.90;;;;;;5134000;27;20023;-64
2022/01/06 01:21:16;;;;;;;4.50;1.92;;;5.70;99.90;;;;;;5134376;27;20043;-65
2022/01/06 01:23:42;;;;;;;4.18;2.45;;;5.70;99.90;;;;;;5132548;27;20032;-64
2022/01/06 01:26:07;;;;;;;8.40;3.45;;;5.60;99.90;;;;;;5133354;27;20023;-70
2022/01/06 01:28:42;;;;;;;6.32;2.33;;;5.60;99.90;;;;;;5134465;27;20023;-63
2022/01/06 01:33:43;;;;;;;4.68;1.70;;;5.70;99.90;;;;;;5134032;27;20027;-64
2022/01/06 01:36:09;;;;;;;3.13;1.90;;;5.60;99.90;;;;;;5134729;27;20067;-65
2022/01/06 01:38:37;;;;;;;5.10;2.08;;;5.70;99.90;;;;;;5132232;27;20031;-62
2022/01/06 01:41:06;;;;;;;4.72;2.20;;;5.60;99.90;;;;;;5133772;27;20460;-63
2022/01/06 01:43:32;;;;;;;5.70;1.73;;;5.60;99.90;;;;;;5133959;27;20039;-63
2022/01/06 01:46:07;;;;;;;3.22;1.88;;;5.50;99.90;;;;;;5133554;27;20445;-63
2022/01/06 01:48:36;;;;;;;7.35;1.80;;;5.50;99.90;;;;;;5133818;27;20027;-72
2022/01/06 01:51:02;;;;;;;3.33;1.50;;;5.50;99.90;;;;;;5133756;27;20028;-63
2022/01/06 01:53:28;;;;;;;5.15;1.88;;;5.50;99.90;;;;;;5133880;27;20365;-64
2022/01/06 01:55:54;;;;;;;4.82;2.17;;;5.50;99.90;;;;;;5133218;27;20143;-65
2022/01/06 01:58:20;;;;;;;7.88;2.03;;;5.50;99.90;;;;;;5133810;27;20052;-64
2022/01/06 02:00:46;;;;;;;4.38;1.85;;;5.50;99.90;;;;;;5133217;27;20024;-63
2022/01/06 02:03:12;;;;;;;7.88;2.17;;;5.50;99.90;;;;;;5133412;27;20031;-65
2022/01/06 02:05:38;;;;;;;4.45;1.88;;;5.40;99.90;;;;;;5133081;27;20106;-64
2022/01/06 02:08:05;;;;;;;4.05;1.80;;;5.40;99.90;;;;;;5133616;27;20019;-64
2022/01/06 02:10:32;;;;;;;8.40;3.13;;;5.50;99.90;;;;;;5133736;27;20095;-63
2022/01/06 02:13:00;;;;;;;9.48;2.25;;;5.50;99.90;;;;;;5135418;27;20046;-65
2022/01/06 02:15:26;;;;;;;8.02;1.85;;;5.50;99.90;;;;;;5133903;27;20034;-64
2022/01/06 02:17:52;;;;;;;7.05;3.20;;;5.40;99.90;;;;;;5132101;27;20030;-64
2022/01/06 02:20:20;;;;;;;12.38;2.70;;;5.40;99.90;;;;;;5132007;27;20047;-63
2022/01/06 02:22:46;;;;;;;9.82;2.72;;;5.50;99.90;;;;;;5131651;27;20035;-63
2022/01/06 02:25:13;;;;;;;5.78;1.73;;;5.50;99.90;;;;;;5133778;27;20084;-63
2022/01/06 02:27:40;;;;;;;8.30;2.08;;;5.50;99.90;;;;;;5132923;27;20027;-70
2022/01/06 02:30:08;;;;;;;4.10;1.50;;;5.50;99.90;;;;;;5133525;27;20028;-63
2022/01/06 02:32:33;;;;;;;5.72;1.52;;;5.50;99.90;;;;;;5132413;27;20061;-67
2022/01/06 02:35:13;;;;;;;9.55;2.47;;;5.40;99.90;;;;;;5132806;27;20461;-63
2022/01/06 02:37:39;;;;;;;8.45;1.98;;;5.40;99.90;;;;;;5132857;27;20029;-63
2022/01/06 02:40:25;;;;;;;7.57;1.67;;;5.30;99.90;;;;;;5133473;27;20027;-64
2022/01/06 02:42:56;;;;;;;8.82;2.20;;;5.40;99.90;;;;;;5132399;27;20023;-65
2022/01/06 02:45:29;;;;;;;4.75;1.42;;;5.30;99.90;;;;;;5132624;27;20019;-64
2022/01/06 02:47:56;;;;;;;5.20;1.88;;;5.40;99.90;;;;;;5131567;27;20027;-66
2022/01/06 02:50:23;;;;;;;7.88;1.85;;;5.40;99.90;;;;;;5133340;27;20094;-64
2022/01/06 02:52:49;;;;;;;4.55;1.52;;;5.50;99.90;;;;;;5131188;27;20105;-65
2022/01/06 02:55:15;;;;;;;5.53;1.33;;;5.50;99.90;;;;;;5131518;28;20027;-63
2022/01/06 02:57:42;;;;;;;10.73;1.80;;;5.50;99.90;;;;;;5131208;28;20023;-64
2022/01/06 03:00:13;;;;;;;5.03;1.75;;;5.50;99.90;;;;;;5133123;27;20111;-64
2022/01/06 03:02:42;;;;;;;10.30;1.73;;;5.50;99.90;;;;;;5132121;27;20192;-64
2022/01/06 03:05:08;;;;;;;6.22;2.05;;;5.50;99.90;;;;;;5131620;28;20027;-64
2022/01/06 03:07:34;;;;;;;3.28;1.92;;;5.50;99.90;;;;;;5133441;27;20023;-65
2022/01/06 03:10:02;;;;;;;7.57;2.83;;;5.50;99.90;;;;;;5131478;28;20031;-64
2022/01/06 03:12:39;;;;;;;7.43;2.40;;;5.50;99.90;;;;;;5132824;27;20027;-64
2022/01/06 03:15:09;;;;;;;6.45;2.60;;;5.60;99.90;;;;;;5133068;27;20114;-63
2022/01/06 03:17:37;;;;;;;3.80;1.95;;;5.60;99.90;;;;;;5114700;28;20480;-65
2022/01/06 03:20:08;;;;;;;7.50;2.50;;;5.50;99.90;;;;;;5132364;27;20083;-63
2022/01/06 03:22:34;;;;;;;8.27;2.38;;;5.50;99.90;;;;;;5132503;27;20023;-64
2022/01/06 03:25:00;;;;;;;6.63;2.95;;;5.60;99.90;;;;;;5130834;28;20122;-66
2022/01/06 03:27:26;;;;;;;8.27;2.25;;;5.60;99.90;;;;;;5131622;27;20030;-64
2022/01/06 03:29:52;;;;;;;6.60;2.33;;;5.50;99.90;;;;;;5135936;27;20027;-64
2022/01/06 03:32:18;;;;;;;6.63;2.35;;;5.50;99.90;;;;;;5136583;27;20019;-64
2022/01/06 03:34:45;;;;;;;5.30;1.70;;;5.50;99.90;;;;;;5136476;27;20035;-64
2022/01/06 03:37:11;;;;;;;6.65;2.25;;;5.50;99.90;;;;;;5136928;27;20034;-66
2022/01/06 03:39:37;;;;;;;9.50;2.90;;;5.50;99.90;;;;;;5136732;27;20059;-64
2022/01/06 03:42:03;;;;;;;11.10;2.47;;;5.60;99.90;;;;;;5134928;27;20065;-64
2022/01/06 03:44:28;;;;;;;13.13;2.90;;;5.60;99.90;;;;;;5135043;27;20031;-64
2022/01/06 03:46:54;;;;;;;11.40;3.15;;;5.60;99.90;;;;;;5135676;27;20027;-65
2022/01/06 03:49:21;;;;;;;12.30;3.10;;;5.70;99.90;;;;;;5136551;27;20095;-66
2022/01/06 03:51:47;;;;;;;6.93;2.05;;;5.60;99.90;;;;;;5135676;27;20030;-63
2022/01/06 03:54:13;;;;;;;12.55;3.58;;;5.70;99.90;;;;;;5136609;27;20486;-67
2022/01/06 03:56:39;;;;;;;8.07;2.65;;;5.70;99.90;;;;;;5136735;27;20496;-63
2022/01/06 03:59:05;;;;;;;10.65;3.28;;;5.70;99.90;;;;;;5134907;27;20100;-64
2022/01/06 04:01:32;;;;;;;16.55;3.42;;;5.80;99.90;;;;;;5136473;27;20369;-62
2022/01/06 04:03:57;;;;;;;10.60;2.72;;;5.70;99.90;;;;;;5134717;27;20035;-64
2022/01/06 04:06:23;;;;;;;11.85;2.97;;;5.70;99.90;;;;;;5136032;27;20437;-68
2022/01/06 04:08:49;;;;;;;6.95;2.10;;;5.60;99.90;;;;;;5135988;27;20069;-63
2022/01/06 04:11:14;;;;;;;7.88;2.92;;;5.60;99.90;;;;;;5134597;27;20026;-64
2022/01/06 04:13:40;;;;;;;13.68;3.58;;;5.50;99.90;;;;;;5135767;27;20118;-64
2022/01/06 04:16:13;;;;;;;10.48;2.67;;;5.50;99.90;;;;;;5134883;27;20026;-63
2022/01/06 04:18:38;;;;;;;9.15;3.80;;;5.40;99.90;;;;;;5135932;27;20031;-64
2022/01/06 04:21:06;;;;;;;12.63;3.65;;;5.30;99.90;;;;;;5133546;27;20369;-65
2022/01/06 04:23:32;;;;;;;12.65;2.42;;;5.20;99.90;;;;;;5135593;27;20035;-65
2022/01/06 04:25:58;;;;;;;10.25;3.28;;;5.20;99.90;;;;;;5135380;27;20083;-63
2022/01/06 04:28:24;;;;;;;10.95;3.72;;;5.20;99.90;;;;;;5134133;27;20118;-64
2022/01/06 04:30:49;;;;;;;12.43;3.65;;;5.30;99.90;;;;;;5134649;27;20496;-63
2022/01/06 04:33:15;;;;;;;8.02;3.10;;;5.20;99.90;;;;;;5135279;27;20103;-63
2022/01/06 04:35:40;;;;;;;14.82;2.55;;;5.20;99.90;;;;;;5133878;27;20182;-64
2022/01/06 04:38:06;;;;;;;12.40;3.78;;;5.10;99.90;;;;;;5135006;27;20148;-63
2022/01/06 04:40:32;;;;;;;10.80;2.88;;;5.00;99.90;;;;;;5134231;27;20110;-64
2022/01/06 04:42:57;;;;;;;10.93;3.00;;;5.00;99.90;;;;;;5134598;27;20448;-65
2022/01/06 04:45:23;;;;;;;9.55;2.65;;;5.00;99.90;;;;;;5134036;27;20031;-63
2022/01/06 04:47:49;;;;;;;8.70;2.90;;;5.00;99.90;;;;;;5134380;27;20185;-63
2022/01/06 04:50:16;;;;;;;12.35;2.50;;;5.00;99.90;;;;;;5134893;27;20065;-65
2022/01/06 04:52:41;;;;;;;12.27;3.97;;;4.90;99.90;;;;;;5126741;27;20032;-64
2022/01/06 04:55:08;;;;;;;12.70;2.65;;;4.90;99.90;;;;;;5114281;28;20084;-66
2022/01/06 04:57:35;;;;;;;10.90;3.03;;;4.90;99.90;;;;;;5114707;28;20035;-64
2022/01/06 05:00:04;;;;;;;12.95;4.00;;;5.00;99.90;;;;;;5112874;28;20020;-64
2022/01/06 05:02:29;;;;;;;13.23;3.63;;;4.90;99.90;;;;;;5113758;28;20084;-65
2022/01/06 05:04:55;;;;;;;13.88;3.13;;;5.00;99.90;;;;;;5114011;28;20032;-63
2022/01/06 05:07:21;;;;;;;13.30;3.58;;;5.10;99.90;;;;;;5114901;28;20106;-64
2022/01/06 05:09:47;;;;;;;11.82;2.63;;;5.20;99.90;;;;;;5114740;28;20032;-64
2022/01/06 05:12:13;;;;;;;10.85;3.08;;;5.20;99.90;;;;;;5114500;28;20499;-68
2022/01/06 05:14:39;;;;;;;13.38;4.28;;;5.20;99.90;;;;;;5114855;28;20035;-66
2022/01/06 05:17:07;;;;;;;11.43;3.67;;;5.10;99.90;;;;;;5113884;28;20803;-65
2022/01/06 05:19:33;;;;;;;7.03;3.30;;;5.10;99.90;;;;;;5112636;28;20038;-63
2022/01/06 05:22:02;;;;;;;11.77;3.55;;;5.20;99.90;;;;;;5122804;27;20027;-64
2022/01/06 05:24:28;;;;;;;11.00;3.50;;;5.20;99.90;;;;;;5133346;27;20031;-65
2022/01/06 05:26:55;;;;;;;19.23;4.13;;;5.20;99.90;;;;;;5132573;27;20455;-63
2022/01/06 05:29:21;;;;;;;17.80;2.55;;;5.10;99.90;;;;;;5134269;27;20024;-64
2022/01/06 05:31:47;;;;;;;9.07;3.05;;;5.20;99.90;;;;;;5130780;27;20407;-64
2022/01/06 05:34:13;;;;;;;12.85;3.60;;;5.20;99.90;;;;;;5133103;27;20123;-63
2022/01/06 05:36:39;;;;;;;14.70;3.75;;;5.10;99.90;;;;;;5134489;27;20020;-63
2022/01/06 05:39:06;;;;;;;11.70;2.97;;;5.10;99.90;;;;;;5133748;27;20464;-62
2022/01/06 05:41:32;;;;;;;13.90;2.97;;;5.10;99.90;;;;;;5134551;27;20023;-64
2022/01/06 05:43:59;;;;;;;18.10;3.55;;;5.10;99.90;;;;;;5132540;27;20035;-63
2022/01/06 05:46:25;;;;;;;18.02;3.90;;;5.10;99.90;;;;;;5132546;27;20023;-63
2022/01/06 05:48:51;;;;;;;14.32;3.35;;;5.10;99.90;;;;;;5133615;27;20111;-62
2022/01/06 05:51:17;;;;;;;14.93;4.20;;;5.20;99.90;;;;;;5132227;27;20119;-63
2022/01/06 05:53:42;;;;;;;18.95;4.78;;;5.00;99.90;;;;;;5132586;27;20129;-65
2022/01/06 05:56:09;;;;;;;11.35;3.00;;;4.90;99.90;;;;;;5133248;27;20042;-65
2022/01/06 05:58:36;;;;;;;12.73;3.35;;;4.90;99.90;;;;;;5134201;27;20376;-62
2022/01/06 06:01:02;;;;;;;11.35;3.35;;;4.90;99.90;;;;;;5132625;27;20027;-64
2022/01/06 06:03:28;;;;;;;10.18;3.42;;;4.80;99.90;;;;;;5133327;27;20031;-65
2022/01/06 06:05:57;;;;;;;15.13;4.93;;;4.90;99.90;;;;;;5133647;27;20392;-63
2022/01/06 06:08:23;;;;;;;13.50;3.47;;;4.70;99.90;;;;;;5133557;27;20035;-64
2022/01/06 06:10:49;;;;;;;12.93;4.13;;;4.70;99.90;;;;;;5132254;27;20349;-72
2022/01/06 06:13:14;;;;;;;15.57;4.40;;;4.80;99.90;;;;;;5133434;27;20068;-68
2022/01/06 06:15:40;;;;;;;16.98;3.63;;;4.70;99.90;;;;;;5133390;27;20027;-62
2022/01/06 06:18:10;;;;;;;10.23;3.65;;;4.70;99.90;;;;;;5132904;27;20034;-64
2022/01/06 06:20:35;;;;;;;20.45;3.90;;;4.50;99.90;;;;;;5133208;27;20129;-64
2022/01/06 06:23:02;;;;;;;13.68;3.40;;;4.70;99.90;;;;;;5132548;27;20118;-64
2022/01/06 06:25:27;;;;;;;12.18;3.92;;;4.70;99.90;;;;;;5133357;27;20023;-64
2022/01/06 06:27:53;;;;;;;17.45;3.65;;;4.60;99.90;;;;;;5133737;27;20072;-64
2022/01/06 06:30:19;;;;;;;13.95;3.50;;;4.50;99.90;;;;;;5133395;27;20484;-64
2022/01/06 06:32:47;;;;;;;24.45;3.83;;;4.60;99.90;;;;;;5132855;27;20453;-63
2022/01/06 06:35:13;;;;;;;15.32;4.00;;;4.70;99.90;;;;;;5130970;27;20023;-65
2022/01/06 06:37:39;;;;;;;14.60;4.05;;;4.60;99.90;;;;;;5132185;27;20026;-64
2022/01/06 06:40:05;;;;;;;9.45;4.50;;;4.60;99.90;;;;;;5132835;27;20026;-64
2022/01/06 06:42:31;;;;;;;18.00;4.13;;;4.60;99.90;;;;;;5131716;27;20507;-63
2022/01/06 06:44:57;;;;;;;14.85;4.47;;;4.70;99.90;;;;;;5132621;27;20031;-64
2022/01/06 06:47:23;;;;;;;12.15;3.53;;;4.60;99.90;;;;;;5133068;27;20030;-64
2022/01/06 06:49:49;;;;;;;13.02;4.30;;;4.70;99.90;;;;;;5132739;27;20026;-66
2022/01/06 06:52:15;;;;;;;10.30;3.97;;;4.60;99.90;;;;;;5132337;27;20058;-67
2022/01/06 06:54:41;;;;;;;15.13;3.63;;;4.60;99.90;;;;;;5132609;27;20357;-63
2022/01/06 06:57:07;;;;;;;16.30;4.20;;;4.60;99.90;;;;;;5131948;27;20023;-64
2022/01/06 06:59:33;;;;;;;14.43;4.13;;;4.40;99.90;;;;;;5132591;27;20429;-63
2022/01/06 07:01:59;;;;;;;12.70;3.85;;;4.40;99.90;;;;;;5132416;27;20023;-63
2022/01/06 07:04:24;;;;;;;15.48;5.15;;;4.50;99.90;;;;;;5136655;27;20035;-63
2022/01/06 07:06:50;;;;;;;13.95;3.50;;;4.40;99.90;;;;;;5137373;27;20080;-64
2022/01/06 07:09:16;;;;;;;15.23;4.45;;;4.50;99.90;;;;;;5136666;27;20383;-63
2022/01/06 07:11:44;;;;;;;18.52;4.60;;;4.60;99.90;;;;;;5137386;27;20031;-63
2022/01/06 07:14:10;;;;;;;12.20;3.42;;;4.60;99.90;;;;;;5134904;27;20037;-65
2022/01/06 07:16:35;;;;;;;17.00;4.85;;;4.70;99.90;;;;;;5136819;27;20106;-65
2022/01/06 07:19:01;;;;;;;12.90;5.30;;;4.80;99.90;;;;;;5135349;27;20110;-65
2022/01/06 07:21:27;;;;;;;11.23;3.28;;;4.80;99.90;;;;;;5137076;27;20047;-64
2022/01/06 07:23:53;;;;;;;10.52;4.25;;;4.80;99.90;;;;;;5137715;27;20039;-64
2022/01/06 07:26:19;;;;;;;11.43;3.50;;;4.90;99.90;;;;;;5137157;27;20157;-63
2022/01/06 07:28:45;;;;;;;10.48;4.13;;;4.70;99.90;;;;;;5136481;27;20049;-65
2022/01/06 07:31:11;;;;;;;13.38;4.85;;;4.80;99.90;;;;;;5134832;27;20106;-68
2022/01/06 07:33:37;;;;;;;11.27;3.75;;;4.70;99.90;;;;;;5136903;27;20106;-65
2022/01/06 07:36:04;;;;;;;11.45;4.10;;;4.80;99.90;;;;;;5134820;27;20375;-65
2022/01/06 07:38:30;;;;;;;7.53;2.92;;;4.90;99.90;;;;;;5137137;27;20042;-66
2022/01/06 07:40:55;;;;;;;12.73;4.20;;;4.90;99.90;;;;;;5134937;27;20023;-66
2022/01/06 07:43:22;;;;;;;13.98;4.30;;;4.80;99.90;;;;;;5137213;27;20055;-67
2022/01/06 07:45:49;;;;;;;13.35;4.60;;;4.90;99.90;;;;;;5136981;27;20026;-64
2022/01/06 07:48:25;;;;;;;14.18;3.90;;;4.80;99.90;;;;;;5136337;27;20205;-65
2022/01/06 07:50:51;;;;;;;8.93;3.42;;;4.80;99.90;;;;;;5136723;27;20435;-65
2022/01/06 07:53:18;;;;;;;10.13;3.03;;;4.60;99.90;;;;;;5134752;27;20035;-66
2022/01/06 07:55:43;;;;;;;14.48;4.88;;;4.50;99.90;;;;;;5136577;27;20019;-65
2022/01/06 07:58:09;;;;;;;16.08;3.92;;;4.60;99.90;;;;;;5135601;27;20023;-65
2022/01/06 08:00:35;;;;;;;16.70;3.35;;;5.10;99.90;;;;;;5136127;27;20040;-62
2022/01/06 08:03:01;;;;;;;9.98;3.90;;;5.60;99.90;;;;;;5135688;27;20023;-66
2022/01/06 08:05:27;;;;;;;13.10;3.08;;;6.10;99.90;;;;;;5136021;27;20433;-65
2022/01/06 08:07:56;;;;;;;10.05;3.92;;;6.70;99.90;;;;;;5136053;27;20086;-65
2022/01/06 08:10:23;;;;;;;15.82;4.05;;;7.20;99.90;;;;;;5136278;27;20103;-64
2022/01/06 08:12:49;;;;;;;15.65;3.85;;;7.80;99.90;;;;;;5135983;27;20027;-64
2022/01/06 08:15:14;;;;;;;15.38;3.72;;;8.10;99.90;;;;;;5135323;27;20035;-66
2022/01/06 08:17:41;;;;;;;13.15;3.30;;;7.70;99.90;;;;;;5135607;27;20023;-65
2022/01/06 08:20:09;;;;;;;15.75;3.75;;;7.30;99.90;;;;;;5135133;27;20047;-65
2022/01/06 08:22:35;;;;;;;15.95;4.05;;;7.20;99.90;;;;;;5134514;27;20045;-65
2022/01/06 08:25:07;;;;;;;8.55;2.80;;;8.10;99.90;;;;;;5135336;27;20027;-65
2022/01/06 08:27:33;;;;;;;;;;;8.70;99.90;;;;;;5118800;27;20023;-64
2022/01/06 08:29:59;;;;;;;8.38;3.13;;;9.30;99.90;;;;;;5135133;27;20295;-69
2022/01/06 08:32:24;;;;;;;13.45;2.97;;;9.80;99.90;;;;;;5134919;27;20023;-63
2022/01/06 08:34:56;;;;;;;19.77;3.95;;;9.50;99.90;;;;;;5132095;27;20035;-64
2022/01/06 08:37:22;;;;;;;11.82;3.25;;;9.00;99.90;;;;;;5116290;27;20027;-67
2022/01/06 08:39:48;;;;;;;10.82;3.78;;;8.40;99.90;;;;;;5115200;28;20509;-65
2022/01/06 08:42:14;;;;;;;14.68;4.32;;;8.00;99.90;;;;;;5113017;28;20024;-67
2022/01/06 08:44:41;;;;;;;15.38;3.63;;;7.60;99.90;;;;;;5114677;28;20330;-67
2022/01/06 08:47:08;;;;;;;12.30;3.30;;;7.70;99.90;;;;;;5112868;28;20028;-63
2022/01/06 08:49:34;;;;;;;10.45;3.35;;;7.80;99.90;;;;;;5122658;27;20037;-64
2022/01/06 08:52:00;;;;;;;12.18;3.67;;;7.80;99.90;;;;;;5115235;27;20039;-65
2022/01/06 08:54:26;;;;;;;16.50;5.75;;;7.70;99.90;;;;;;5117840;27;20031;-64
2022/01/06 08:56:52;;;;;;;14.45;3.60;;;7.50;99.90;;;;;;5117825;27;20028;-67
2022/01/06 08:59:17;;;;;;;13.18;3.47;;;7.70;99.90;;;;;;5134710;27;20084;-64
2022/01/06 09:01:43;;;;;;;12.38;3.65;;;7.60;99.90;;;;;;5133466;27;20076;-65
2022/01/06 09:04:08;;;;;;;14.10;3.53;;;7.40;99.90;;;;;;5129591;27;20110;-64
2022/01/06 09:06:34;;;;;;;9.65;3.25;;;7.50;99.90;;;;;;5117850;27;20127;-69
2022/01/06 09:09:01;;;;;;;12.10;3.25;;;7.60;99.90;;;;;;5122770;27;20035;-68
2022/01/06 09:11:27;;;;;;;15.70;5.10;;;7.50;99.90;;;;;;5133618;27;20100;-72
2022/01/06 09:13:53;;;;;;;14.18;3.90;;;7.50;99.90;;;;;;5129854;27;20126;-65
2022/01/06 09:16:19;;;;;;;11.93;3.67;;;8.40;99.90;;;;;;5119601;27;20027;-67
2022/01/06 09:18:44;;;;;;;9.98;2.92;;;9.30;99.90;;;;;;5135560;27;20023;-64
2022/01/06 09:21:10;;;;;;;13.57;3.22;;;10.30;99.90;;;;;;5129376;27;20059;-65
2022/01/06 09:23:36;;;;;;;12.15;3.30;;;10.90;99.90;;;;;;5123135;27;20078;-64
2022/01/06 09:26:02;;;;;;;12.30;3.42;;;11.40;99.50;;;;;;5133563;27;20023;-65
2022/01/06 09:28:28;;;;;;;12.40;3.30;;;12.40;97.80;;;;;;5134748;27;20027;-65
2022/01/06 09:30:55;;;;;;;21.48;3.75;;;13.30;96.80;;;;;;5121772;27;20043;-65
2022/01/06 09:33:22;;;;;;;15.88;2.95;;;13.00;95.30;;;;;;5122815;27;20636;-64
2022/01/06 09:35:49;;;;;;;14.27;4.18;;;12.90;95.00;;;;;;5135101;27;20019;-67
2022/01/06 09:38:16;;;;;;;9.05;3.47;;;13.40;94.00;;;;;;5133771;27;20027;-65
2022/01/06 09:40:43;;;;;;;10.20;3.17;;;13.30;93.50;;;;;;5119604;27;20536;-66
2022/01/06 09:43:12;;;;;;;13.93;3.47;;;13.90;94.40;;;;;;5114741;27;20032;-67
2022/01/06 09:45:39;;;;;;;14.23;2.83;;;14.60;92.00;;;;;;5114805;28;20423;-65
2022/01/06 09:48:06;;;;;;;20.10;4.10;;;13.70;92.80;;;;;;5112545;28;20024;-63
2022/01/06 09:50:32;;;;;;;9.35;3.15;;;14.00;92.20;;;;;;5113173;28;20086;-65
2022/01/06 09:52:58;;;;;;;10.38;3.35;;;14.40;97.40;;;;;;5113617;28;20521;-64
2022/01/06 09:55:23;;;;;;;12.15;3.33;;;13.90;96.50;;;;;;5111979;28;20123;-67
2022/01/06 09:57:57;;;;;;;11.13;3.90;;;14.10;96.70;;;;;;5119672;27;20039;-65
2022/01/06 10:00:24;;;;;;;8.40;3.28;;;14.70;92.30;;;;;;5133237;27;20527;-65
2022/01/06 10:03:04;;;;;;;9.23;3.80;;;14.90;90.00;;;;;;5131119;27;20027;-65
2022/01/06 10:05:40;;;;;;;14.80;3.50;;;14.90;89.10;;;;;;5131505;27;20491;-65
2022/01/06 10:08:06;;;;;;;15.30;3.53;;;14.90;88.20;;;;;;5112715;27;20023;-65
2022/01/06 10:10:34;;;;;;;14.85;3.90;;;15.00;89.30;;;;;;5111617;28;20028;-63
2022/01/06 10:13:05;;;;;;;11.48;3.40;;;15.60;87.20;;;;;;5111361;28;20020;-64
2022/01/06 10:15:31;;;;;;;;;;;15.90;83.20;;;;;;5112507;28;20027;-64
2022/01/06 10:17:57;;;;;;;8.30;2.63;;;15.10;83.40;;;;;;5112596;28;19904;-64
2022/01/06 10:20:26;;;;;;;12.70;4.35;;;15.10;83.80;;;;;;5124353;27;20043;-67
2022/01/06 10:22:55;;;;;;;13.30;3.30;;;14.20;84.50;;;;;;5132181;27;20027;-65
2022/01/06 10:25:23;;;;;;;12.57;3.65;;;13.80;88.20;;;;;;5096528;28;20034;-64
2022/01/06 10:27:52;;;;;;;8.05;3.08;;;14.30;86.70;;;;;;5112909;28;20023;-66
2022/01/06 10:30:18;;;;;;;9.77;3.38;;;13.90;84.50;;;;;;5112578;28;20349;-66
2022/01/06 10:32:44;;;;;;;7.85;2.80;;;14.20;83.90;;;;;;5118697;27;20024;-66
2022/01/06 10:35:14;;;;;;;22.58;4.03;;;14.10;84.70;;;;;;5112498;28;20419;-64
2022/01/06 10:37:46;;;;;;;15.13;3.20;;;13.90;83.60;;;;;;5111605;28;20057;-64
2022/01/06 10:40:17;;;;;;;9.95;3.05;;;14.10;85.00;;;;;;5112449;28;20055;-68
2022/01/06 10:42:49;;;;;;;13.60;3.70;;;14.30;83.00;;;;;;5111681;28;20481;-68
2022/01/06 10:45:20;;;;;;;11.32;2.65;;;14.30;82.30;;;;;;5110989;28;20058;-65
2022/01/06 10:47:47;;;;;;;;;;;14.00;84.20;;;;;;5113426;28;20024;-65
2022/01/06 10:50:17;;;;;;;15.32;2.97;;;14.00;83.80;;;;;;5111986;28;19951;-66
2022/01/06 10:52:48;;;;;;;8.55;2.40;;;13.70;84.60;;;;;;5112860;28;20032;-64
2022/01/06 10:55:14;;;;;;;10.02;2.90;;;13.90;83.10;;;;;;5110714;28;20540;-65
2022/01/06 10:57:53;;;;;;;12.63;4.32;;;14.40;82.70;;;;;;5113078;28;20156;-65
2022/01/06 11:00:20;;;;;;;9.27;2.83;;;14.30;82.70;;;;;;5112155;28;20060;-64
2022/01/06 11:02:46;;;;;;;15.52;3.67;;;14.90;81.90;;;;;;5106242;28;20122;-66
2022/01/06 11:05:11;;;;;;;13.45;4.03;;;15.40;82.80;;;;;;5110657;28;20161;-64
2022/01/06 11:07:37;;;;;;;6.05;2.33;;;15.50;82.30;;;;;;5110630;28;20027;-63
2022/01/06 11:10:14;;;;;;;16.55;3.83;;;16.40;78.80;;;;;;5108458;28;20491;-67
2022/01/06 11:12:40;;;;;;;13.77;3.53;;;16.10;75.50;;;;;;5108687;28;20027;-66
2022/01/06 11:15:08;;;;;;;9.15;2.67;;;16.10;78.10;;;;;;5110473;28;20106;-65
2022/01/06 11:17:34;;;;;;;10.48;2.25;;;15.90;75.80;;;;;;5109900;28;20103;-65
2022/01/06 11:20:00;;;;;;;12.13;3.75;;;16.20;73.70;;;;;;5109977;28;20052;-66
2022/01/06 11:22:27;;;;;;;10.82;2.72;;;16.00;75.70;;;;;;5117273;28;20081;-65
2022/01/06 11:24:59;;;;;;;12.25;3.00;;;15.90;74.30;;;;;;5118743;27;20040;-66
2022/01/06 11:27:36;;;;;;;12.00;3.17;;;16.00;74.70;;;;;;5116367;28;20020;-66
2022/01/06 11:30:14;;;;;;;7.72;3.05;;;16.70;72.50;;;;;;5119318;28;20026;-65
2022/01/06 11:32:42;;;;;;;9.75;3.60;;;16.70;72.30;;;;;;5130849;27;20031;-66
2022/01/06 11:35:16;;;;;;;15.20;3.40;;;15.50;72.10;;;;;;5121576;27;20031;-71
2022/01/06 11:37:47;;;;;;;8.23;2.78;;;15.20;75.50;;;;;;5109416;28;20118;-66
2022/01/06 11:40:15;;;;;;;6.70;1.75;;;16.00;72.00;;;;;;5115577;27;20034;-65
2022/01/06 11:42:53;;;;;;;9.05;2.70;;;15.50;72.80;;;;;;5138094;27;20038;-67
2022/01/06 11:45:20;;;;;;;6.95;3.00;;;15.20;74.50;;;;;;5127766;28;20035;-66
2022/01/06 11:47:46;;;;;;;7.68;2.53;;;15.30;72.80;;;;;;5124657;27;20045;-64
2022/01/06 11:50:21;;;;;;;8.57;2.50;;;14.70;73.30;;;;;;5130569;27;20114;-66
2022/01/06 11:53:04;;;;;;;11.77;3.25;;;14.10;74.60;;;;;;5134200;27;20031;-66
2022/01/06 11:55:50;;;;;;;9.27;2.90;;;13.60;76.20;;;;;;5134183;27;20032;-64
2022/01/06 11:58:22;;;;;;;11.00;3.65;;;12.70;79.00;;;;;;5134908;27;20039;-68
2022/01/06 12:01:05;;;;;;;10.27;4.20;;;12.30;80.60;;;;;;5137408;27;20044;-69
2022/01/06 12:03:39;;;;;;;11.38;3.05;;;12.00;81.80;;;;;;5135835;27;20043;-66
2022/01/06 12:06:06;;;;;;;14.77;3.17;;;11.70;82.40;;;;;;5132725;27;20026;-68
2022/01/06 12:08:43;;;;;;;10.75;2.92;;;11.50;83.20;;;;;;5115017;28;20099;-65
2022/01/06 12:11:33;;;;;;;10.65;3.47;;;12.00;83.80;;;;;;5114407;28;20082;-65
2022/01/06 12:14:00;;;;;;;6.47;2.28;;;13.30;80.80;;;;;;5126016;27;20023;-66
2022/01/06 12:16:37;;;;;;;6.95;2.70;;;14.60;76.80;;;;;;5111857;27;20023;-64
2022/01/06 12:19:23;;;;;;;5.75;2.67;;;15.70;72.30;;;;;;5122254;27;20053;-66
2022/01/06 12:21:49;;;;;;;7.60;2.55;;;16.00;72.00;;;;;;5113630;28;20048;-65
2022/01/06 12:24:15;;;;;;;7.93;2.72;;;16.30;67.50;;;;;;5112256;28;20038;-65
2022/01/06 12:26:43;;;;;;;8.77;2.90;;;15.80;69.20;;;;;;5113022;28;20027;-65
2022/01/06 12:29:20;;;;;;;14.45;3.90;;;15.70;68.80;;;;;;5112422;28;20361;-65
2022/01/06 12:31:47;;;;;;;12.85;3.25;;;15.80;68.70;;;;;;5114795;27;20142;-67
2022/01/06 12:34:14;;;;;;;9.80;2.65;;;15.30;69.60;;;;;;5122275;27;20476;-65
2022/01/06 12:36:43;;;;;;;11.52;2.67;;;16.00;69.80;;;;;;5120566;27;20107;-65
2022/01/06 12:39:19;;;;;;;6.40;2.75;;;16.20;67.70;;;;;;5125367;27;20084;-67
2022/01/06 12:41:47;;;;;;;8.65;3.05;;;15.90;67.50;;;;;;5124983;27;20041;-65
2022/01/06 12:44:28;;;;;;;9.68;3.15;;;15.00;69.40;;;;;;5127859;27;20038;-66
2022/01/06 12:46:55;;;;;;;11.95;3.20;;;15.00;69.40;;;;;;5113759;27;20028;-65
2022/01/06 12:49:23;;;;;;;8.38;3.22;;;14.90;70.20;;;;;;5117282;27;20027;-64
2022/01/06 12:51:49;;;;;;;5.18;2.60;;;14.70;70.70;;;;;;5118073;27;20055;-65
2022/01/06 12:54:20;;;;;;;6.10;2.40;;;15.30;69.00;;;;;;5125631;27;20539;-66
2022/01/06 12:56:54;;;;;;;7.93;1.90;;;15.90;69.30;;;;;;5122278;27;20095;-66
2022/01/06 12:59:24;;;;;;;8.77;2.65;;;16.80;66.80;;;;;;5132935;27;20026;-66
2022/01/06 13:01:59;;;;;;;7.60;2.33;;;17.30;65.00;;;;;;5125634;27;20023;-64
2022/01/06 13:04:31;;;;;;;6.43;3.03;;;17.00;64.10;;;;;;5114218;27;20047;-63